sensor_id;sensor_type;location;lat;lon;timestamp;pressure;altitude;pressure_sealevel;temperature;humidity
48216;BME280;34005;48.844;10.098;2023-05-19T00:00:02;97181.78;;;13.18;54.15
48216;BME280;34005;48.844;10.098;2023-05-19T00:02:32;97186.22;;;13.17;54.47
48216;BME280;34005;48.844;10.098;2023-05-19T00:05:00;97183.59;;;13.17;54.75
48216;BME280;34005;48.844;10.098;2023-05-19T00:07:30;97182.78;;;13.17;54.97
48216;BME280;34005;48.844;10.098;2023-05-19T00:09:58;97180.97;;;13.17;54.59
48216;BME280;34005;48.844;10.098;2023-05-19T00:12:26;97182.00;;;13.16;54.84
48216;BME280;34005;48.844;10.098;2023-05-19T00:14:54;97176.94;;;13.15;54.60
48216;BME280;34005;48.844;10.098;2023-05-19T00:17:22;97171.06;;;13.13;54.47
48216;BME280;34005;48.844;10.098;2023-05-19T00:19:51;97171.44;;;13.10;54.57
48216;BME280;34005;48.844;10.098;2023-05-19T00:22:20;97164.72;;;13.07;54.61
48216;BME280;34005;48.844;10.098;2023-05-19T00:24:48;97164.94;;;13.06;54.76
48216;BME280;34005;48.844;10.098;2023-05-19T00:27:15;97165.28;;;13.03;54.92
48216;BME280;34005;48.844;10.098;2023-05-19T00:29:43;97165.50;;;13.01;55.99
48216;BME280;34005;48.844;10.098;2023-05-19T00:32:10;97171.72;;;13.00;55.12
48216;BME280;34005;48.844;10.098;2023-05-19T00:34:38;97166.47;;;13.00;55.06
48216;BME280;34005;48.844;10.098;2023-05-19T00:37:07;97170.09;;;12.99;55.04
48216;BME280;34005;48.844;10.098;2023-05-19T00:39:35;97165.03;;;12.97;54.86
48216;BME280;34005;48.844;10.098;2023-05-19T00:42:03;97165.22;;;12.96;55.13
48216;BME280;34005;48.844;10.098;2023-05-19T00:44:31;97163.78;;;12.93;54.81
48216;BME280;34005;48.844;10.098;2023-05-19T00:46:58;97158.06;;;12.90;54.46
48216;BME280;34005;48.844;10.098;2023-05-19T00:49:26;97154.22;;;12.86;54.53
48216;BME280;34005;48.844;10.098;2023-05-19T00:51:54;97156.22;;;12.84;54.79
48216;BME280;34005;48.844;10.098;2023-05-19T00:54:23;97153.75;;;12.82;54.83
48216;BME280;34005;48.844;10.098;2023-05-19T00:56:52;97156.75;;;12.79;54.73
48216;BME280;34005;48.844;10.098;2023-05-19T00:59:19;97146.47;;;12.77;54.75
48216;BME280;34005;48.844;10.098;2023-05-19T01:01:47;97143.22;;;12.75;54.95
48216;BME280;34005;48.844;10.098;2023-05-19T01:04:15;97135.53;;;12.74;54.69
48216;BME280;34005;48.844;10.098;2023-05-19T01:06:42;97143.75;;;12.71;54.65
48216;BME280;34005;48.844;10.098;2023-05-19T01:09:10;97138.69;;;12.69;54.79
48216;BME280;34005;48.844;10.098;2023-05-19T01:11:39;97148.53;;;12.67;55.04
48216;BME280;34005;48.844;10.098;2023-05-19T01:14:07;97145.28;;;12.65;55.28
48216;BME280;34005;48.844;10.098;2023-05-19T01:16:38;97136.78;;;12.63;54.96
48216;BME280;34005;48.844;10.098;2023-05-19T01:19:13;97137.81;;;12.62;55.36
48216;BME280;34005;48.844;10.098;2023-05-19T01:22:11;97132.56;;;12.62;55.64
48216;BME280;34005;48.844;10.098;2023-05-19T01:25:07;97130.94;;;12.61;55.65
48216;BME280;34005;48.844;10.098;2023-05-19T01:28:23;97136.16;;;12.61;55.36
48216;BME280;34005;48.844;10.098;2023-05-19T01:30:54;97148.63;;;12.59;55.34
48216;BME280;34005;48.844;10.098;2023-05-19T01:33:23;97145.38;;;12.57;55.29
48216;BME280;34005;48.844;10.098;2023-05-19T01:35:52;97143.75;;;12.56;55.70
48216;BME280;34005;48.844;10.098;2023-05-19T01:38:21;97145.38;;;12.57;55.75
48216;BME280;34005;48.844;10.098;2023-05-19T01:40:50;97140.13;;;12.57;55.73
48216;BME280;34005;48.844;10.098;2023-05-19T01:43:20;97140.13;;;12.57;55.63
48216;BME280;34005;48.844;10.098;2023-05-19T01:45:48;97141.78;;;12.58;55.67
48216;BME280;34005;48.844;10.098;2023-05-19T01:48:18;97143.38;;;12.59;55.53
48216;BME280;34005;48.844;10.098;2023-05-19T01:50:46;97144.38;;;12.58;55.65
48216;BME280;34005;48.844;10.098;2023-05-19T01:53:13;97147.00;;;12.58;55.55
48216;BME280;34005;48.844;10.098;2023-05-19T01:55:43;97147.19;;;12.56;55.71
48216;BME280;34005;48.844;10.098;2023-05-19T01:58:17;97147.34;;;12.55;55.58
48216;BME280;34005;48.844;10.098;2023-05-19T02:00:52;97151.78;;;12.54;55.82
48216;BME280;34005;48.844;10.098;2023-05-19T02:03:36;97152.59;;;12.55;55.91
48216;BME280;34005;48.844;10.098;2023-05-19T02:06:17;97150.97;;;12.54;56.11
48216;BME280;34005;48.844;10.098;2023-05-19T02:08:54;97150.50;;;12.50;56.13
48216;BME280;34005;48.844;10.098;2023-05-19T02:11:29;97155.94;;;12.49;56.23
48216;BME280;34005;48.844;10.098;2023-05-19T02:14:02;97146.44;;;12.48;56.15
48216;BME280;34005;48.844;10.098;2023-05-19T02:16:35;97141.41;;;12.46;56.21
48216;BME280;34005;48.844;10.098;2023-05-19T02:19:04;97141.59;;;12.45;56.46
48216;BME280;34005;48.844;10.098;2023-05-19T02:21:32;97137.34;;;12.44;56.37
48216;BME280;34005;48.844;10.098;2023-05-19T02:23:59;97135.09;;;12.41;56.19
48216;BME280;34005;48.844;10.098;2023-05-19T02:26:27;97145.56;;;12.41;56.09
48216;BME280;34005;48.844;10.098;2023-05-19T02:28:54;97139.69;;;12.39;56.41
48216;BME280;34005;48.844;10.098;2023-05-19T02:31:22;97140.69;;;12.38;56.41
48216;BME280;34005;48.844;10.098;2023-05-19T02:33:50;97128.59;;;12.36;56.66
48216;BME280;34005;48.844;10.098;2023-05-19T02:36:18;97119.94;;;12.36;56.74
48216;BME280;34005;48.844;10.098;2023-05-19T02:38:46;97128.59;;;12.36;56.66
48216;BME280;34005;48.844;10.098;2023-05-19T02:41:14;97123.34;;;12.36;56.69
48216;BME280;34005;48.844;10.098;2023-05-19T02:43:41;97118.13;;;12.36;56.59
48216;BME280;34005;48.844;10.098;2023-05-19T02:46:09;97111.28;;;12.35;56.70
48216;BME280;34005;48.844;10.098;2023-05-19T02:48:36;97110.44;;;12.35;56.91
48216;BME280;34005;48.844;10.098;2023-05-19T02:51:04;97116.53;;;12.35;56.84
48216;BME280;34005;48.844;10.098;2023-05-19T02:53:33;97107.03;;;12.34;57.01
48216;BME280;34005;48.844;10.098;2023-05-19T02:56:00;97104.41;;;12.34;56.91
48216;BME280;34005;48.844;10.098;2023-05-19T02:58:28;97100.81;;;12.35;56.85
48216;BME280;34005;48.844;10.098;2023-05-19T03:00:56;97099.97;;;12.35;56.97
48216;BME280;34005;48.844;10.098;2023-05-19T03:03:23;97097.56;;;12.33;57.00
48216;BME280;34005;48.844;10.098;2023-05-19T03:05:52;97093.16;;;12.34;57.41
48216;BME280;34005;48.844;10.098;2023-05-19T03:08:22;97097.56;;;12.33;57.19
48216;BME280;34005;48.844;10.098;2023-05-19T03:11:47;97101.78;;;12.34;57.02
48216;BME280;34005;48.844;10.098;2023-05-19T03:15:03;97101.16;;;12.32;57.25
48216;BME280;34005;48.844;10.098;2023-05-19T03:18:06;97099.56;;;12.31;57.30
48216;BME280;34005;48.844;10.098;2023-05-19T03:21:01;97104.97;;;12.30;57.29
48216;BME280;34005;48.844;10.098;2023-05-19T03:23:33;97100.53;;;12.30;57.41
48216;BME280;34005;48.844;10.098;2023-05-19T03:26:13;97102.97;;;12.32;57.76
48216;BME280;34005;48.844;10.098;2023-05-19T03:28:52;97104.78;;;12.31;57.26
48216;BME280;34005;48.844;10.098;2023-05-19T03:31:39;97100.53;;;12.30;57.55
48216;BME280;34005;48.844;10.098;2023-05-19T03:34:12;97103.50;;;12.27;57.50
48216;BME280;34005;48.844;10.098;2023-05-19T03:36:48;97108.13;;;12.25;57.45
48216;BME280;34005;48.844;10.098;2023-05-19T03:39:39;97113.09;;;12.20;57.50
48216;BME280;34005;48.844;10.098;2023-05-19T03:42:40;97117.84;;;12.16;57.79
48216;BME280;34005;48.844;10.098;2023-05-19T03:45:19;97115.78;;;12.12;57.95
48216;BME280;34005;48.844;10.098;2023-05-19T03:47:57;97117.75;;;12.10;57.77
48216;BME280;34005;48.844;10.098;2023-05-19T03:50:35;97127.41;;;12.09;58.19
48216;BME280;34005;48.844;10.098;2023-05-19T03:53:27;97128.56;;;12.07;58.05
48216;BME280;34005;48.844;10.098;2023-05-19T03:56:05;97123.31;;;12.07;58.49
48216;BME280;34005;48.844;10.098;2023-05-19T03:58:45;97127.09;;;12.04;58.58
48216;BME280;34005;48.844;10.098;2023-05-19T04:01:19;97125.50;;;12.03;58.62
48216;BME280;34005;48.844;10.098;2023-05-19T04:04:10;97130.91;;;12.02;58.92
48216;BME280;34005;48.844;10.098;2023-05-19T04:06:50;97129.44;;;11.99;59.08
48216;BME280;34005;48.844;10.098;2023-05-19T04:09:38;97119.16;;;11.98;59.02
48216;BME280;34005;48.844;10.098;2023-05-19T04:12:13;97123.41;;;11.99;59.12
48216;BME280;34005;48.844;10.098;2023-05-19T04:14:50;97124.84;;;12.01;59.40
48216;BME280;34005;48.844;10.098;2023-05-19T04:17:48;97126.66;;;12.01;59.39
48216;BME280;34005;48.844;10.098;2023-05-19T04:20:26;97131.91;;;12.01;59.00
48216;BME280;34005;48.844;10.098;2023-05-19T04:23:21;97127.63;;;12.00;59.28
48216;BME280;34005;48.844;10.098;2023-05-19T04:25:55;97123.59;;;11.97;59.61
48216;BME280;34005;48.844;10.098;2023-05-19T04:36:46;97125.78;;;11.85;60.23
48216;BME280;34005;48.844;10.098;2023-05-19T04:39:34;97126.44;;;11.87;61.60
48216;BME280;34005;48.844;10.098;2023-05-19T04:42:19;97127.06;;;11.89;60.23
48216;BME280;34005;48.844;10.098;2023-05-19T04:44:53;97122.84;;;11.88;60.07
48216;BME280;34005;48.844;10.098;2023-05-19T04:49:58;97130.03;;;11.86;59.99
48216;BME280;34005;48.844;10.098;2023-05-19T04:52:27;97133.31;;;11.88;60.66
48216;BME280;34005;48.844;10.098;2023-05-19T04:54:55;97129.69;;;11.89;59.96
48216;BME280;34005;48.844;10.098;2023-05-19T04:57:22;97131.31;;;11.90;59.91
48216;BME280;34005;48.844;10.098;2023-05-19T04:59:50;97124.28;;;11.91;59.87
48216;BME280;34005;48.844;10.098;2023-05-19T05:02:17;97129.19;;;11.94;61.10
48216;BME280;34005;48.844;10.098;2023-05-19T05:04:45;97128.00;;;11.97;60.07
48216;BME280;34005;48.844;10.098;2023-05-19T05:07:13;97125.19;;;11.98;59.72
48216;BME280;34005;48.844;10.098;2023-05-19T05:09:42;97129.28;;;12.01;59.64
48216;BME280;34005;48.844;10.098;2023-05-19T05:12:11;97128.91;;;12.04;59.39
48216;BME280;34005;48.844;10.098;2023-05-19T05:14:40;97132.97;;;12.06;59.33
48216;BME280;34005;48.844;10.098;2023-05-19T05:17:09;97126.94;;;12.06;59.37
48216;BME280;34005;48.844;10.098;2023-05-19T05:19:37;97122.19;;;12.09;59.14
48216;BME280;34005;48.844;10.098;2023-05-19T05:22:05;97120.38;;;12.10;59.12
48216;BME280;34005;48.844;10.098;2023-05-19T05:24:33;97126.06;;;12.13;59.17
48216;BME280;34005;48.844;10.098;2023-05-19T05:27:02;97123.53;;;12.20;60.02
48216;BME280;34005;48.844;10.098;2023-05-19T05:29:31;97122.16;;;12.24;59.20
48216;BME280;34005;48.844;10.098;2023-05-19T05:31:58;97121.81;;;12.27;58.92
48216;BME280;34005;48.844;10.098;2023-05-19T05:34:26;97114.78;;;12.28;58.55
48216;BME280;34005;48.844;10.098;2023-05-19T05:36:54;97112.97;;;12.28;58.71
48216;BME280;34005;48.844;10.098;2023-05-19T05:39:21;97120.47;;;12.31;59.70
48216;BME280;34005;48.844;10.098;2023-05-19T05:41:49;97118.50;;;12.33;58.74
48216;BME280;34005;48.844;10.098;2023-05-19T05:44:18;97116.53;;;12.35;58.58
48216;BME280;34005;48.844;10.098;2023-05-19T05:46:46;97122.38;;;12.38;58.58
48216;BME280;34005;48.844;10.098;2023-05-19T05:49:14;97123.00;;;12.40;58.54
48216;BME280;34005;48.844;10.098;2023-05-19T05:51:42;97127.88;;;12.43;58.36
48216;BME280;34005;48.844;10.098;2023-05-19T05:54:31;97130.31;;;12.44;58.47
48216;BME280;34005;48.844;10.098;2023-05-19T05:56:59;97123.09;;;12.46;58.33
48216;BME280;34005;48.844;10.098;2023-05-19T05:59:29;97120.28;;;12.48;58.28
48216;BME280;34005;48.844;10.098;2023-05-19T06:01:59;97120.75;;;12.51;58.17
48216;BME280;34005;48.844;10.098;2023-05-19T06:04:27;97122.34;;;12.52;57.96
48216;BME280;34005;48.844;10.098;2023-05-19T06:06:54;97128.06;;;12.56;58.03
48216;BME280;34005;48.844;10.098;2023-05-19T06:09:26;97134.38;;;12.62;57.49
48216;BME280;34005;48.844;10.098;2023-05-19T06:11:56;97129.75;;;12.64;57.09
48216;BME280;34005;48.844;10.098;2023-05-19T06:14:24;97131.84;;;12.68;57.06
48216;BME280;34005;48.844;10.098;2023-05-19T06:16:53;97125.44;;;12.71;56.62
48216;BME280;34005;48.844;10.098;2023-05-19T06:19:21;97126.88;;;12.73;57.56
48216;BME280;34005;48.844;10.098;2023-05-19T06:21:50;97128.75;;;12.80;57.18
48216;BME280;34005;48.844;10.098;2023-05-19T06:24:18;97129.41;;;12.82;56.98
48216;BME280;34005;48.844;10.098;2023-05-19T06:26:46;97123.97;;;12.83;56.57
48216;BME280;34005;48.844;10.098;2023-05-19T06:29:13;97124.41;;;12.87;56.74
48216;BME280;34005;48.844;10.098;2023-05-19T06:31:42;97129.28;;;12.90;56.63
48216;BME280;34005;48.844;10.098;2023-05-19T06:34:11;97132.53;;;12.92;56.73
48216;BME280;34005;48.844;10.098;2023-05-19T06:36:42;97126.94;;;12.95;56.31
48216;BME280;34005;48.844;10.098;2023-05-19T06:39:10;97128.38;;;12.97;56.39
48216;BME280;34005;48.844;10.098;2023-05-19T06:41:38;97131.44;;;13.01;55.91
48216;BME280;34005;48.844;10.098;2023-05-19T06:44:06;97136.47;;;13.03;56.09
48216;BME280;34005;48.844;10.098;2023-05-19T06:46:34;97129.06;;;13.06;56.06
48216;BME280;34005;48.844;10.098;2023-05-19T06:49:01;97127.72;;;13.10;55.82
48216;BME280;34005;48.844;10.098;2023-05-19T06:51:31;97130.59;;;13.15;55.67
48216;BME280;34005;48.844;10.098;2023-05-19T06:53:58;97138.09;;;13.18;55.49
48216;BME280;34005;48.844;10.098;2023-05-19T06:56:26;97140.50;;;13.20;55.65
48216;BME280;34005;48.844;10.098;2023-05-19T06:58:53;97134.06;;;13.23;55.40
48216;BME280;34005;48.844;10.098;2023-05-19T07:01:21;97130.47;;;13.24;55.28
48216;BME280;34005;48.844;10.098;2023-05-19T07:03:49;97127.69;;;13.25;55.23
48216;BME280;34005;48.844;10.098;2023-05-19T07:06:16;97123.69;;;13.29;55.58
48216;BME280;34005;48.844;10.098;2023-05-19T07:08:45;97133.03;;;13.32;55.40
48216;BME280;34005;48.844;10.098;2023-05-19T07:11:13;97128.41;;;13.34;55.07
48216;BME280;34005;48.844;10.098;2023-05-19T07:13:41;97123.78;;;13.36;55.40
48216;BME280;34005;48.844;10.098;2023-05-19T07:16:08;97122.78;;;13.37;54.74
48216;BME280;34005;48.844;10.098;2023-05-19T07:18:36;97122.16;;;13.35;54.63
48216;BME280;34005;48.844;10.098;2023-05-19T07:21:03;97126.78;;;13.33;54.85
48216;BME280;34005;48.844;10.098;2023-05-19T07:23:32;97126.13;;;13.31;54.84
48216;BME280;34005;48.844;10.098;2023-05-19T07:26:01;97137.41;;;13.31;54.85
48216;BME280;34005;48.844;10.098;2023-05-19T07:28:29;97131.38;;;13.31;54.75
48216;BME280;34005;48.844;10.098;2023-05-19T07:30:56;97125.16;;;13.32;54.72
48216;BME280;34005;48.844;10.098;2023-05-19T07:33:24;97125.78;;;13.34;54.65
48216;BME280;34005;48.844;10.098;2023-05-19T07:35:52;97124.78;;;13.35;54.55
48216;BME280;34005;48.844;10.098;2023-05-19T07:38:20;97116.91;;;13.35;54.52
48216;BME280;34005;48.844;10.098;2023-05-19T07:40:47;97114.47;;;13.33;54.44
48216;BME280;34005;48.844;10.098;2023-05-19T07:43:17;97121.69;;;13.31;54.23
48216;BME280;34005;48.844;10.098;2023-05-19T07:45:44;97119.28;;;13.30;54.23
48216;BME280;34005;48.844;10.098;2023-05-19T07:48:12;97117.66;;;13.29;54.29
48216;BME280;34005;48.844;10.098;2023-05-19T07:50:40;97126.50;;;13.28;54.48
48216;BME280;34005;48.844;10.098;2023-05-19T07:53:07;97119.63;;;13.27;54.71
48216;BME280;34005;48.844;10.098;2023-05-19T07:55:35;97124.84;;;13.27;54.70
48216;BME280;34005;48.844;10.098;2023-05-19T07:58:02;97118.81;;;13.26;54.51
48216;BME280;34005;48.844;10.098;2023-05-19T08:00:31;97124.06;;;13.26;54.50
48216;BME280;34005;48.844;10.098;2023-05-19T08:02:59;97122.44;;;13.25;54.65
48216;BME280;34005;48.844;10.098;2023-05-19T08:05:28;97115.38;;;13.26;54.52
48216;BME280;34005;48.844;10.098;2023-05-19T08:07:56;97118.00;;;13.26;54.76
48216;BME280;34005;48.844;10.098;2023-05-19T08:10:23;97121.25;;;13.28;54.73
48216;BME280;34005;48.844;10.098;2023-05-19T08:12:51;97114.38;;;13.27;54.55
48216;BME280;34005;48.844;10.098;2023-05-19T08:15:19;97114.06;;;13.30;54.60
48216;BME280;34005;48.844;10.098;2023-05-19T08:17:48;97118.28;;;13.31;54.45
48216;BME280;34005;48.844;10.098;2023-05-19T08:20:16;97118.91;;;13.33;54.70
48216;BME280;34005;48.844;10.098;2023-05-19T08:22:44;97117.72;;;13.35;54.63
48216;BME280;34005;48.844;10.098;2023-05-19T08:25:12;97120.97;;;13.37;54.74
48216;BME280;34005;48.844;10.098;2023-05-19T08:27:40;97118.78;;;13.41;55.02
48216;BME280;34005;48.844;10.098;2023-05-19T08:30:08;97113.00;;;13.46;54.64
48216;BME280;34005;48.844;10.098;2023-05-19T08:32:36;97115.84;;;13.51;54.46
48216;BME280;34005;48.844;10.098;2023-05-19T08:35:06;97105.81;;;13.54;54.41
48216;BME280;34005;48.844;10.098;2023-05-19T08:37:34;97113.91;;;13.59;54.36
48216;BME280;34005;48.844;10.098;2023-05-19T08:40:05;97109.91;;;13.64;54.25
48216;BME280;34005;48.844;10.098;2023-05-19T08:42:34;97103.13;;;13.69;54.20
48216;BME280;34005;48.844;10.098;2023-05-19T08:45:02;97093.31;;;13.78;54.26
48216;BME280;34005;48.844;10.098;2023-05-19T08:47:30;97102.84;;;13.86;54.38
48216;BME280;34005;48.844;10.098;2023-05-19T08:50:02;97103.50;;;13.94;53.90
48216;BME280;34005;48.844;10.098;2023-05-19T08:52:41;97101.94;;;14.00;53.65
48216;BME280;34005;48.844;10.098;2023-05-19T08:55:24;97097.72;;;14.06;54.24
48216;BME280;34005;48.844;10.098;2023-05-19T08:57:55;97104.66;;;14.13;53.55
48216;BME280;34005;48.844;10.098;2023-05-19T09:00:23;97103.91;;;14.19;53.21
48216;BME280;34005;48.844;10.098;2023-05-19T09:02:51;97097.91;;;14.26;52.80
48216;BME280;34005;48.844;10.098;2023-05-19T09:05:37;97090.06;;;14.32;52.66
48216;BME280;34005;48.844;10.098;2023-05-19T09:08:06;97094.50;;;14.38;52.41
48216;BME280;34005;48.844;10.098;2023-05-19T09:10:34;97089.28;;;14.45;52.08
48216;BME280;34005;48.844;10.098;2023-05-19T09:13:01;97094.97;;;14.49;52.48
48216;BME280;34005;48.844;10.098;2023-05-19T09:15:30;97088.81;;;14.56;52.42
48216;BME280;34005;48.844;10.098;2023-05-19T09:18:06;97091.22;;;14.58;51.93
48216;BME280;34005;48.844;10.098;2023-05-19T09:20:39;97081.53;;;14.58;52.05
48216;BME280;34005;48.844;10.098;2023-05-19T09:23:11;97085.97;;;14.58;51.88
48216;BME280;34005;48.844;10.098;2023-05-19T09:25:46;97088.59;;;14.58;51.75
48216;BME280;34005;48.844;10.098;2023-05-19T09:28:13;97083.34;;;14.58;51.49
48216;BME280;34005;48.844;10.098;2023-05-19T09:30:41;97087.59;;;14.59;51.53
48216;BME280;34005;48.844;10.098;2023-05-19T09:33:09;97088.22;;;14.61;51.44
48216;BME280;34005;48.844;10.098;2023-05-19T09:35:37;97080.34;;;14.61;51.34
48216;BME280;34005;48.844;10.098;2023-05-19T09:38:04;97072.66;;;14.59;51.49
48216;BME280;34005;48.844;10.098;2023-05-19T09:40:33;97078.69;;;14.60;51.70
48216;BME280;34005;48.844;10.098;2023-05-19T09:43:04;97083.94;;;14.60;51.15
48216;BME280;34005;48.844;10.098;2023-05-19T09:45:34;97072.66;;;14.59;51.42
48216;BME280;34005;48.844;10.098;2023-05-19T09:48:02;97076.06;;;14.60;51.33
48216;BME280;34005;48.844;10.098;2023-05-19T09:50:31;97070.63;;;14.61;51.09
48216;BME280;34005;48.844;10.098;2023-05-19T09:52:59;97066.59;;;14.59;50.98
48216;BME280;34005;48.844;10.098;2023-05-19T09:55:27;97070.22;;;14.58;50.49
48216;BME280;34005;48.844;10.098;2023-05-19T09:57:57;97065.97;;;14.57;50.47
48216;BME280;34005;48.844;10.098;2023-05-19T10:00:25;97066.16;;;14.55;50.59
48216;BME280;34005;48.844;10.098;2023-05-19T10:02:54;97069.59;;;14.56;50.63
48216;BME280;34005;48.844;10.098;2023-05-19T10:05:23;97066.97;;;14.56;50.83
48216;BME280;34005;48.844;10.098;2023-05-19T10:07:52;97068.59;;;14.57;51.23
48216;BME280;34005;48.844;10.098;2023-05-19T10:10:20;97058.91;;;14.57;51.05
48216;BME280;34005;48.844;10.098;2023-05-19T10:12:48;97059.91;;;14.56;51.09
48216;BME280;34005;48.844;10.098;2023-05-19T10:15:18;97059.47;;;14.53;51.41
48216;BME280;34005;48.844;10.098;2023-05-19T10:17:55;97061.47;;;14.51;51.63
48216;BME280;34005;48.844;10.098;2023-05-19T10:20:23;97055.59;;;14.49;52.22
48216;BME280;34005;48.844;10.098;2023-05-19T10:22:51;97059.25;;;14.48;52.29
48216;BME280;34005;48.844;10.098;2023-05-19T10:25:18;97054.00;;;14.48;52.02
48216;BME280;34005;48.844;10.098;2023-05-19T10:27:50;97061.47;;;14.51;52.69
48216;BME280;34005;48.844;10.098;2023-05-19T10:30:25;97059.09;;;14.56;53.23
48216;BME280;34005;48.844;10.098;2023-05-19T10:32:54;97060.75;;;14.63;52.27
48216;BME280;34005;48.844;10.098;2023-05-19T10:35:41;97058.94;;;14.64;52.46
48216;BME280;34005;48.844;10.098;2023-05-19T10:38:22;97064.97;;;14.65;51.56
48216;BME280;34005;48.844;10.098;2023-05-19T10:41:01;97063.56;;;14.62;51.40
48216;BME280;34005;48.844;10.098;2023-05-19T10:43:45;97071.84;;;14.59;51.44
48216;BME280;34005;48.844;10.098;2023-05-19T10:46:15;97063.69;;;14.54;51.60
48216;BME280;34005;48.844;10.098;2023-05-19T10:48:44;97067.75;;;14.50;52.08
48216;BME280;34005;48.844;10.098;2023-05-19T10:51:14;97062.88;;;14.47;52.06
48216;BME280;34005;48.844;10.098;2023-05-19T10:53:42;97067.31;;;14.46;51.62
48216;BME280;34005;48.844;10.098;2023-05-19T10:56:27;97063.25;;;14.43;51.80
48216;BME280;34005;48.844;10.098;2023-05-19T10:59:01;97061.63;;;14.42;52.59
